Terminal Aerodrome Forecast
Issued by NWS Upton, NY

Home | Current Version | Previous Version | Text Only | Print | Product List | Glossary On
Versions: 1 2 3 4 5 6 7 8 9 10 11 12 13 14 15 16 17 18 19 20 21 22 23 24 25 26 27 28 29 30 31 32 33 34 35 36 37 38
000
FTUS41 KOKX 221725
TAFISP
TAF
KISP 221725Z 2218/2318 06009KT 4SM BR SCT005 OVC008
      TEMPO 2218/2222 2SM BR BKN005
     FM222300 07011G17KT 5SM BR OVC010
     FM230300 06016G26KT 6SM BR OVC010
     FM231000 06024G36KT 6SM BR OVC010
     FM231500 03028G45KT 3SM RA BR OVC010=

USA.gov is the U.S. government's official web portal to all federal, state and local government web resources and services.